Bovey, Minnesota
Current Conditions -  °F | °C
As of 10:35 AM on Monday 26 Jan 2015 (Local Time) from KGPZ Reporting Station
Overcast Overcast  
Wind Chill: 26°   Ceiling: 1200
Heat Index: 34°   Visibility: 10mi
Dew Point: 30°   Wind: 10mph
Humidity: 87%   Direction: 300°WNW
Pressure: 29.61"   Gusts: 17mph
Location:  47.3°N, 93.42°W
Report Text: KGPZ 261635Z AUTO 30009G15KT 10SM OVC012 01/M01 A2961 RMK AO1
Loading
Personal Weather Stations






























Interactive Weather Map New forecast layout! Learn more

10-Day Weather Forecast

Advertisements
Track Severe Weather on mobile